Aerbrava en el facebook Aerbrava en el twitter Aerbrava Google+ Aerbrava instagram Aerbrava en el youtube Aerbrava tumblr Aerbrava flikr Aerbrava pinterest
aerbrava en catal&agà Aerbrava in English
Escuela de Pilotos
Teléfono 972234126 972 23 41 26
 
aerbrava en català Aerbrava in English
Aerbrava - Meteorología

Información meteorológica aeronáutica

 

En este apartado aparece la información meteorológica aeronáutica que es utilizada en las prácticas de los alumnos de la Escuela de Pilotos de nuestro centro durante su formación, por lo que puede no ser actual y se debería utilizar por su propia cuenta y riesgo. AERBRAVA no se hace responsable de su uso.

 

TIEMPO ACTUAL

Satélite Meteorológico

sat24.com

Servei Meteorològic de Catalunya

 

LEGE 241000Z 19008KT 150V230 CAVOK 30/15 Q1019
LEGE 240930Z 19007KT 150V230 CAVOK 29/14 Q1019
LEGE 240900Z 17004KT 120V210 CAVOK 27/15 Q1019
LEGE 240830Z 17003KT 120V240 CAVOK 26/17 Q1019
LEGE 240800Z 14001KT CAVOK 25/16 Q1019
LEGE 240730Z 18001KT CAVOK 23/16 Q1019
LEGE 240700Z VRB02KT CAVOK 22/16 Q1019
LEGE 240630Z 00000KT CAVOK 21/16 Q1019
TAF LEGE 240500Z 2406/2506 VRB03KT 9999 FEW040 TX32/2413Z TN16/2406Z   BECMG 2407/2409 17012KT   BECMG 2419/2421 18004KT

Aviation Weather

 
Aerbrava en el facebook Aerbrava en el twitter Aerbrava Google+ Aerbrava instagram Aerbrava en el youtube Aerbrava tumblr Aerbrava flikr Aerbrava pinterest

¡CSS Vàlid!